createdAt,value
2022-10-17T00:01:17.716Z,69.72
2022-10-17T00:03:50.318Z,69.98
2022-10-17T00:06:18.034Z,70.43
2022-10-17T00:08:45.902Z,70.47
2022-10-17T00:11:22.317Z,70.53
2022-10-17T00:13:56.440Z,70.28
2022-10-17T00:16:34.179Z,70.23
2022-10-17T00:19:02.372Z,70.15
2022-10-17T00:21:32.212Z,70.32
2022-10-17T00:24:02.767Z,70.30
2022-10-17T00:26:33.384Z,70.30
2022-10-17T00:29:01.114Z,70.78
2022-10-17T00:31:33.861Z,70.85
2022-10-17T00:34:02.915Z,70.75
2022-10-17T00:36:30.938Z,71.12
2022-10-17T00:39:01.841Z,70.92
2022-10-17T00:41:32.534Z,70.82
2022-10-17T00:44:29.455Z,70.91
2022-10-17T00:47:05.125Z,70.94
2022-10-17T00:49:39.395Z,71.10
2022-10-17T00:52:20.567Z,70.85
2022-10-17T00:54:58.532Z,70.75
2022-10-17T00:57:31.852Z,70.79
2022-10-17T01:00:05.017Z,71.09
2022-10-17T01:02:32.708Z,71.06
2022-10-17T01:05:06.969Z,71.25
2022-10-17T01:07:40.883Z,71.46
2022-10-17T01:10:11.034Z,71.19
2022-10-17T01:12:44.846Z,71.06
2022-10-17T01:15:27.610Z,71.28
2022-10-17T01:18:27.192Z,71.54
2022-10-17T01:21:25.489Z,71.44
2022-10-17T01:24:14.588Z,71.34
2022-10-17T01:27:00.956Z,71.35
2022-10-17T01:29:44.123Z,71.37
2022-10-17T01:32:41.910Z,71.77
2022-10-17T01:35:14.363Z,71.59
2022-10-17T01:38:11.903Z,71.56
2022-10-17T01:40:49.384Z,71.86
2022-10-17T01:43:37.196Z,71.85
2022-10-17T01:46:20.334Z,72.03
2022-10-17T01:48:48.016Z,72.11
2022-10-17T01:51:25.279Z,72.23
2022-10-17T01:54:06.323Z,72.47
2022-10-17T01:56:38.918Z,72.22
2022-10-17T01:59:31.351Z,72.45
2022-10-17T02:02:01.430Z,72.49
2022-10-17T02:04:29.360Z,72.35
2022-10-17T02:07:15.209Z,72.33
2022-10-17T02:09:47.302Z,72.18
2022-10-17T02:12:40.865Z,72.41
2022-10-17T02:15:11.580Z,72.44
2022-10-17T02:18:14.835Z,72.33
2022-10-17T02:21:03.681Z,72.58
2022-10-17T02:24:09.606Z,72.67
2022-10-17T02:27:00.411Z,72.92
2022-10-17T02:29:53.631Z,72.83
2022-10-17T02:32:52.135Z,72.88
2022-10-17T02:35:28.272Z,73.01
2022-10-17T02:38:03.708Z,73.23
2022-10-17T02:40:34.273Z,73.25
2022-10-17T02:43:01.986Z,73.27
2022-10-17T02:45:36.773Z,73.26
2022-10-17T02:48:38.824Z,73.35
2022-10-17T02:51:38.529Z,73.34
2022-10-17T02:54:31.726Z,73.29
2022-10-17T02:57:17.477Z,73.32
2022-10-17T02:59:51.150Z,73.32
2022-10-17T03:02:18.985Z,73.22
2022-10-17T03:04:51.888Z,73.26
2022-10-17T03:07:24.293Z,73.32
2022-10-17T03:09:51.969Z,73.25
2022-10-17T03:12:19.626Z,73.43
2022-10-17T03:14:47.283Z,73.48
2022-10-17T03:17:14.925Z,73.40
2022-10-17T03:19:42.663Z,73.45
2022-10-17T03:22:10.349Z,73.35
2022-10-17T03:24:38.069Z,73.39
2022-10-17T03:27:05.807Z,73.61
2022-10-17T03:29:33.707Z,73.81
2022-10-17T03:32:02.182Z,73.72
2022-10-17T03:34:29.934Z,73.65
2022-10-17T03:36:57.633Z,73.69
2022-10-17T03:39:26.646Z,73.82
2022-10-17T03:41:54.319Z,73.82
2022-10-17T03:44:22.063Z,73.74
2022-10-17T03:46:49.898Z,73.60
2022-10-17T03:49:17.745Z,73.51
2022-10-17T03:51:45.509Z,73.65
2022-10-17T03:54:13.239Z,73.81
2022-10-17T03:56:41.783Z,73.73
2022-10-17T03:59:14.526Z,73.79
2022-10-17T04:01:42.839Z,73.69
2022-10-17T04:04:10.970Z,73.73
2022-10-17T04:06:39.345Z,73.73
2022-10-17T04:09:07.939Z,73.85
2022-10-17T04:11:35.661Z,73.97
2022-10-17T04:14:03.534Z,74.28
2022-10-17T04:16:31.193Z,74.17
2022-10-17T04:19:00.557Z,74.11
2022-10-17T04:21:29.739Z,74.13
2022-10-17T04:24:00.600Z,74.11
2022-10-17T04:26:28.446Z,74.09
2022-10-17T04:28:56.592Z,74.10
2022-10-17T04:31:25.363Z,74.21
2022-10-17T04:33:53.277Z,74.39
2022-10-17T04:36:23.507Z,74.76
2022-10-17T04:38:51.363Z,74.70
2022-10-17T04:41:20.134Z,74.91
2022-10-17T04:43:50.972Z,75.01
2022-10-17T04:46:19.381Z,75.10
2022-10-17T04:48:47.155Z,75.25
2022-10-17T04:51:20.684Z,75.18
2022-10-17T04:53:51.530Z,75.30
2022-10-17T04:56:22.082Z,75.62
2022-10-17T04:58:49.997Z,75.53
2022-10-17T05:01:20.478Z,75.63
2022-10-17T05:03:49.159Z,75.85
2022-10-17T05:06:28.747Z,75.87
2022-10-17T05:08:58.499Z,75.60
2022-10-17T05:11:29.106Z,75.50
2022-10-17T05:14:00.078Z,75.66
2022-10-17T05:16:30.314Z,75.55
2022-10-17T05:18:59.785Z,75.55
2022-10-17T05:21:30.642Z,75.68
2022-10-17T05:23:59.792Z,75.64
2022-10-17T05:26:27.531Z,75.60
2022-10-17T05:28:55.279Z,75.50
2022-10-17T05:31:23.084Z,75.35
2022-10-17T05:33:50.718Z,75.28
2022-10-17T05:36:19.143Z,75.38
2022-10-17T05:38:53.104Z,75.40
2022-10-17T05:41:20.907Z,75.56
2022-10-17T05:43:50.710Z,75.54
2022-10-17T05:46:18.683Z,75.99
2022-10-17T05:48:48.281Z,75.80
2022-10-17T05:51:16.041Z,75.91
2022-10-17T05:53:43.780Z,75.72
2022-10-17T05:56:14.822Z,75.67
2022-10-17T05:58:50.617Z,75.55
2022-10-17T06:01:22.128Z,75.65
2022-10-17T06:03:49.839Z,75.51
2022-10-17T06:06:19.031Z,75.58
2022-10-17T06:08:47.104Z,75.45
2022-10-17T06:11:14.924Z,75.38
2022-10-17T06:13:42.768Z,75.48
2022-10-17T06:16:10.488Z,75.46
2022-10-17T06:18:38.173Z,75.26
2022-10-17T06:21:09.861Z,75.11
2022-10-17T06:23:38.384Z,75.02
2022-10-17T06:26:07.903Z,74.91
2022-10-17T06:28:36.606Z,74.72
2022-10-17T06:31:07.473Z,74.60
2022-10-17T06:33:36.306Z,74.52
2022-10-17T06:36:07.512Z,74.39
2022-10-17T06:38:36.188Z,74.26
2022-10-17T06:41:10.686Z,74.11
2022-10-17T06:43:40.853Z,73.89
2022-10-17T06:46:10.514Z,73.68
2022-10-17T06:48:38.384Z,73.35
2022-10-17T06:51:10.520Z,73.22
2022-10-17T06:53:40.900Z,73.09
2022-10-17T06:56:10.937Z,73.04
2022-10-17T06:58:41.687Z,72.97
2022-10-17T07:01:12.905Z,72.87
2022-10-17T07:03:41.689Z,72.68
2022-10-17T07:06:11.396Z,72.19
2022-10-17T07:08:44.860Z,71.97
2022-10-17T07:11:14.207Z,71.24
2022-10-17T07:13:43.370Z,70.96
2022-10-17T07:16:12.886Z,70.91
2022-10-17T07:18:40.777Z,70.97
2022-10-17T07:21:10.683Z,70.91
2022-10-17T07:23:41.422Z,70.51
2022-10-17T07:26:13.756Z,69.87
2022-10-17T07:28:44.996Z,69.44
2022-10-17T07:31:19.059Z,69.56
2022-10-17T07:33:48.703Z,69.33
2022-10-17T07:36:17.768Z,69.11
2022-10-17T07:38:45.475Z,68.58
2022-10-17T07:41:17.873Z,68.66
2022-10-17T07:43:49.066Z,68.75
2022-10-17T07:46:16.865Z,68.73
2022-10-17T07:48:44.547Z,68.24
2022-10-17T07:51:12.258Z,68.17
2022-10-17T07:53:42.757Z,67.82
2022-10-17T07:56:14.063Z,67.58
2022-10-17T07:58:44.816Z,67.59
2022-10-17T08:01:15.859Z,67.48
2022-10-17T08:03:51.056Z,67.19
2022-10-17T08:06:18.898Z,67.31
2022-10-17T08:08:46.616Z,67.28
2022-10-17T08:11:16.772Z,67.14
2022-10-17T08:13:44.534Z,67.43
2022-10-17T08:16:13.677Z,67.38
2022-10-17T08:18:44.130Z,67.51
2022-10-17T08:21:15.130Z,67.13
2022-10-17T08:23:44.425Z,67.04
2022-10-17T08:26:17.270Z,67.03
2022-10-17T08:28:45.922Z,66.87
2022-10-17T08:31:18.920Z,67.13
2022-10-17T08:33:49.428Z,66.36
2022-10-17T08:36:21.237Z,65.93
2022-10-17T08:38:52.591Z,65.53
2022-10-17T08:42:00.212Z,64.78
2022-10-17T08:44:43.539Z,62.36
2022-10-17T08:47:16.523Z,59.91
2022-10-17T08:49:56.238Z,59.87
2022-10-17T08:52:39.929Z,58.72
2022-10-17T08:55:21.462Z,55.87
2022-10-17T08:57:49.360Z,56.07
2022-10-17T09:00:21.066Z,55.05
2022-10-17T09:03:10.779Z,54.50
2022-10-17T09:05:59.749Z,54.44
2022-10-17T09:08:53.633Z,51.64
2022-10-17T09:11:52.933Z,47.29
2022-10-17T09:14:46.650Z,43.24
2022-10-17T09:17:43.166Z,39.98
2022-10-17T09:20:18.522Z,38.33
2022-10-17T09:23:14.463Z,37.45
2022-10-17T09:25:46.173Z,38.66
2022-10-17T09:28:24.421Z,39.91
2022-10-17T09:31:04.162Z,40.77
2022-10-17T09:33:59.193Z,42.20
2022-10-17T09:36:41.026Z,42.97
2022-10-17T09:39:19.209Z,42.94
2022-10-17T09:41:55.871Z,43.19
2022-10-17T09:44:34.048Z,43.54
2022-10-17T09:47:24.399Z,43.86
2022-10-17T09:49:53.528Z,44.19
2022-10-17T09:52:36.913Z,45.29
2022-10-17T09:55:18.493Z,46.07
2022-10-17T09:58:01.027Z,46.45
2022-10-17T10:00:33.279Z,46.60
2022-10-17T10:03:15.528Z,46.89
2022-10-17T10:06:02.900Z,47.25
2022-10-17T10:08:37.936Z,47.23
2022-10-17T10:11:13.607Z,47.71
2022-10-17T10:13:43.365Z,47.34
2022-10-17T10:16:33.839Z,46.89
2022-10-17T10:19:03.715Z,47.11
2022-10-17T10:21:36.184Z,47.57
2022-10-17T10:24:15.396Z,47.25
2022-10-17T10:26:48.209Z,47.73
2022-10-17T10:29:35.361Z,48.10
2022-10-17T10:32:19.507Z,48.00
2022-10-17T10:34:52.691Z,47.45
2022-10-17T10:37:25.765Z,47.15
2022-10-17T10:39:59.179Z,46.70
2022-10-17T10:42:38.293Z,47.41
2022-10-17T10:45:47.627Z,47.67
2022-10-17T10:48:36.641Z,46.55
2022-10-17T10:51:09.744Z,46.16
2022-10-17T10:54:26.604Z,46.65
2022-10-17T10:57:00.165Z,46.07
2022-10-17T10:59:50.375Z,45.86
2022-10-17T11:02:45.757Z,46.07
2022-10-17T11:05:22.425Z,45.60
2022-10-17T11:08:11.345Z,45.68
2022-10-17T11:11:08.328Z,45.72
2022-10-17T11:13:49.594Z,45.95
2022-10-17T11:17:03.094Z,46.28
2022-10-17T11:20:01.475Z,45.55
2022-10-17T11:22:39.964Z,45.85
2022-10-17T11:25:31.765Z,45.84
2022-10-17T11:28:04.837Z,45.41
2022-10-17T11:30:46.287Z,45.73
2022-10-17T11:33:49.505Z,45.74
2022-10-17T11:36:20.968Z,45.60
2022-10-17T11:38:56.145Z,45.39
2022-10-17T11:41:35.533Z,45.56
2022-10-17T11:44:27.914Z,45.47
2022-10-17T11:47:01.883Z,45.13
2022-10-17T11:49:40.579Z,45.99
2022-10-17T11:55:30.210Z,45.25
2022-10-17T11:58:16.550Z,44.96
2022-10-17T12:01:10.463Z,44.66
2022-10-17T12:03:48.661Z,44.39
2022-10-17T12:06:45.715Z,44.57
2022-10-17T12:09:22.409Z,44.58
2022-10-17T12:11:57.541Z,44.81
2022-10-17T12:14:47.489Z,44.61
2022-10-17T12:17:40.564Z,44.45
2022-10-17T12:20:21.246Z,45.08
2022-10-17T12:23:10.228Z,44.77
2022-10-17T12:25:50.856Z,45.08
2022-10-17T12:28:34.509Z,44.94
2022-10-17T12:31:22.373Z,44.50
2022-10-17T12:33:55.744Z,44.34
2022-10-17T12:36:23.475Z,44.58
2022-10-17T12:39:01.880Z,44.81
2022-10-17T12:41:50.551Z,44.89
2022-10-17T12:44:21.923Z,44.90
2022-10-17T12:46:52.642Z,44.85
2022-10-17T12:49:53.154Z,45.01
2022-10-17T12:52:25.568Z,44.65
2022-10-17T12:55:10.930Z,44.84
2022-10-17T12:57:50.618Z,44.79
2022-10-17T13:01:18.976Z,44.78
2022-10-17T13:03:48.172Z,44.83
2022-10-17T13:06:23.292Z,44.74
2022-10-17T13:09:03.528Z,45.33
2022-10-17T13:11:36.724Z,45.38
2022-10-17T13:14:12.688Z,45.58
2022-10-17T13:16:53.649Z,45.23
2022-10-17T13:19:26.269Z,45.20
2022-10-17T13:21:59.844Z,45.56
2022-10-17T13:24:39.553Z,45.56
2022-10-17T13:27:24.728Z,45.13
2022-10-17T13:29:52.478Z,45.35
2022-10-17T13:32:20.225Z,45.61
2022-10-17T13:35:07.326Z,46.06
2022-10-17T13:37:37.618Z,45.99
2022-10-17T13:40:24.850Z,46.35
2022-10-17T13:42:58.235Z,46.42
2022-10-17T13:45:34.679Z,46.26
2022-10-17T13:48:06.302Z,46.39
2022-10-17T13:50:44.571Z,45.95
2022-10-17T13:53:13.065Z,46.17
2022-10-17T13:56:09.497Z,46.35
2022-10-17T13:58:51.168Z,46.31
2022-10-17T14:01:21.134Z,46.81
2022-10-17T14:04:02.181Z,47.03
2022-10-17T14:06:49.815Z,47.14
2022-10-17T14:09:30.862Z,47.05
2022-10-17T14:12:07.084Z,47.40
2022-10-17T14:14:57.981Z,47.58
2022-10-17T14:17:29.526Z,47.35
2022-10-17T14:20:34.411Z,47.69
2022-10-17T14:23:20.803Z,48.07
2022-10-17T14:25:42.295Z,48.35
2022-10-17T14:28:12.312Z,48.66
2022-10-17T14:30:56.216Z,48.65
2022-10-17T14:33:32.233Z,48.90
2022-10-17T14:36:02.979Z,49.04
2022-10-17T14:38:32.231Z,49.06
2022-10-17T14:44:16.354Z,49.00
2022-10-17T14:46:50.672Z,49.30
2022-10-17T14:49:34.484Z,49.47
2022-10-17T14:52:18.219Z,49.78
2022-10-17T14:54:49.257Z,50.12
2022-10-17T14:57:27.486Z,50.59
2022-10-17T14:59:56.815Z,50.80
2022-10-17T15:02:28.376Z,51.07
2022-10-17T15:04:58.160Z,51.50
2022-10-17T15:07:25.906Z,51.66
2022-10-17T15:09:54.555Z,51.93
2022-10-17T15:12:25.479Z,52.18
2022-10-17T15:14:54.558Z,52.39
2022-10-17T15:17:29.166Z,52.73
2022-10-17T15:19:58.546Z,52.81
2022-10-17T15:22:26.430Z,53.09
2022-10-17T15:24:55.699Z,53.41
2022-10-17T15:27:25.008Z,53.51
2022-10-17T15:29:53.455Z,54.00
2022-10-17T15:32:21.183Z,54.21
2022-10-17T15:34:48.863Z,54.54
2022-10-17T15:37:24.252Z,54.66
2022-10-17T15:39:55.881Z,54.83
2022-10-17T15:42:29.772Z,55.11
2022-10-17T15:44:58.797Z,55.37
2022-10-17T15:47:35.784Z,55.57
2022-10-17T15:50:04.858Z,55.54
2022-10-17T15:52:33.381Z,55.68
2022-10-17T15:55:04.315Z,55.71
2022-10-17T15:57:38.285Z,55.95
2022-10-17T16:00:16.715Z,56.27
2022-10-17T16:02:49.974Z,56.36
2022-10-17T16:05:26.422Z,56.48
2022-10-17T16:07:54.159Z,56.65
2022-10-17T16:10:24.033Z,56.92
2022-10-17T16:12:54.063Z,56.92
2022-10-17T16:15:28.095Z,57.40
2022-10-17T16:18:00.480Z,57.15
2022-10-17T16:20:33.907Z,57.22
2022-10-17T16:23:03.730Z,58.06
2022-10-17T16:25:33.056Z,58.18
2022-10-17T16:28:01.970Z,58.49
2022-10-17T16:30:32.448Z,58.70
2022-10-17T16:33:00.157Z,58.75
2022-10-17T16:35:34.734Z,59.40
2022-10-17T16:38:08.206Z,59.33
2022-10-17T16:40:40.348Z,59.60
2022-10-17T16:43:14.646Z,59.51
2022-10-17T16:45:42.736Z,59.98
2022-10-17T16:48:11.497Z,59.95
2022-10-17T16:50:40.758Z,60.02
2022-10-17T16:53:08.494Z,60.88
2022-10-17T16:55:38.743Z,61.20
2022-10-17T16:58:06.536Z,61.13
2022-10-17T17:00:34.264Z,61.53
2022-10-17T17:03:01.953Z,61.55
2022-10-17T17:05:29.702Z,62.06
2022-10-17T17:07:57.536Z,62.36
2022-10-17T17:10:27.779Z,62.38
2022-10-17T17:12:56.921Z,62.35
2022-10-17T17:15:24.657Z,62.43
2022-10-17T17:17:55.529Z,62.59
2022-10-17T17:20:24.296Z,62.53
2022-10-17T17:22:52.553Z,62.78
2022-10-17T17:25:22.901Z,63.34
2022-10-17T17:27:50.743Z,63.13
2022-10-17T17:30:18.589Z,63.62
2022-10-17T17:32:46.281Z,63.42
2022-10-17T17:35:14.808Z,63.57
2022-10-17T17:37:42.616Z,63.70
2022-10-17T17:40:12.031Z,64.29
2022-10-17T17:42:41.215Z,64.57
2022-10-17T17:45:11.968Z,64.68
2022-10-17T17:47:40.024Z,64.98
2022-10-17T17:50:08.473Z,65.10
2022-10-17T17:52:42.724Z,65.52
2022-10-17T17:55:10.418Z,65.70
2022-10-17T17:57:39.192Z,65.88
2022-10-17T18:00:07.625Z,66.14
2022-10-17T18:02:37.657Z,66.35
2022-10-17T18:05:07.986Z,66.49
2022-10-17T18:07:37.778Z,66.61
2022-10-17T18:10:08.989Z,66.65
2022-10-17T18:12:36.805Z,66.75
2022-10-17T18:15:07.710Z,66.72
2022-10-17T18:17:35.492Z,66.90
2022-10-17T18:20:05.627Z,67.15
2022-10-17T18:22:35.863Z,67.08
2022-10-17T18:25:03.710Z,67.63
2022-10-17T18:27:31.379Z,67.56
2022-10-17T18:29:59.028Z,67.74
2022-10-17T18:32:30.426Z,67.99
2022-10-17T18:34:58.758Z,67.87
2022-10-17T18:37:26.588Z,67.62
2022-10-17T18:39:56.311Z,67.65
2022-10-17T18:42:24.035Z,67.64
2022-10-17T18:44:51.840Z,68.08
2022-10-17T18:47:20.190Z,68.15
2022-10-17T18:49:48.866Z,67.93
2022-10-17T18:52:16.525Z,67.99
2022-10-17T18:54:44.182Z,67.91
2022-10-17T18:57:13.131Z,67.86
2022-10-17T18:59:41.895Z,67.74
2022-10-17T19:02:13.202Z,67.83
2022-10-17T19:04:41.087Z,67.97
2022-10-17T19:07:08.838Z,67.66
2022-10-17T19:09:37.399Z,67.51
2022-10-17T19:12:05.325Z,67.63
2022-10-17T19:14:33.413Z,67.62
2022-10-17T19:17:01.881Z,67.37
2022-10-17T19:19:31.311Z,67.45
2022-10-17T19:22:01.780Z,67.42
2022-10-17T19:24:30.382Z,67.43
2022-10-17T19:27:03.940Z,67.47
2022-10-17T19:29:32.174Z,67.38
2022-10-17T19:32:01.007Z,67.55
2022-10-17T19:34:28.943Z,67.55
2022-10-17T19:36:59.557Z,67.59
2022-10-17T19:39:27.391Z,67.60
2022-10-17T19:41:57.376Z,67.65
2022-10-17T19:44:25.308Z,67.66
2022-10-17T19:46:53.016Z,67.70
2022-10-17T19:49:21.212Z,67.69
2022-10-17T19:51:49.106Z,67.89
2022-10-17T19:54:20.342Z,67.76
2022-10-17T19:56:48.083Z,67.81
2022-10-17T19:59:17.371Z,68.13
2022-10-17T20:01:46.945Z,68.02
2022-10-17T20:04:15.681Z,68.13
2022-10-17T20:06:43.438Z,68.27
2022-10-17T20:09:16.619Z,68.40
2022-10-17T20:11:49.538Z,68.59
2022-10-17T20:14:18.236Z,68.66
2022-10-17T20:16:50.356Z,68.66
2022-10-17T20:19:18.648Z,68.83
2022-10-17T20:21:46.478Z,68.94
2022-10-17T20:24:18.174Z,68.73
2022-10-17T20:26:46.079Z,68.69
2022-10-17T20:29:20.518Z,68.77
2022-10-17T20:31:49.034Z,68.72
2022-10-17T20:34:19.667Z,68.68
2022-10-17T20:36:49.566Z,68.61
2022-10-17T20:39:20.437Z,68.82
2022-10-17T20:41:48.587Z,68.74
2022-10-17T20:44:16.310Z,68.74
2022-10-17T20:46:57.620Z,68.88
2022-10-17T20:49:32.698Z,69.00
2022-10-17T20:52:02.307Z,68.84
2022-10-17T20:54:30.357Z,68.74
2022-10-17T20:57:03.876Z,68.68
2022-10-17T20:59:36.172Z,68.87
2022-10-17T21:02:06.586Z,69.02
2022-10-17T21:04:51.996Z,69.10
2022-10-17T21:07:22.610Z,69.38
2022-10-17T21:09:50.293Z,69.43
2022-10-17T21:12:26.047Z,69.41
2022-10-17T21:15:05.051Z,69.29
2022-10-17T21:17:34.674Z,69.40
2022-10-17T21:20:02.379Z,69.16
2022-10-17T21:22:30.261Z,69.30
2022-10-17T21:24:58.527Z,69.43
2022-10-17T21:27:26.248Z,69.38
2022-10-17T21:29:54.107Z,69.52
2022-10-17T21:32:39.455Z,69.56
2022-10-17T21:35:13.028Z,69.52
2022-10-17T21:37:40.694Z,69.40
2022-10-17T21:40:10.777Z,69.30
2022-10-17T21:42:38.518Z,69.60
2022-10-17T21:45:15.173Z,69.69
2022-10-17T21:48:11.307Z,69.91
2022-10-17T21:50:32.902Z,69.94
2022-10-17T21:53:00.598Z,69.89
2022-10-17T21:55:28.421Z,69.81
2022-10-17T21:57:56.189Z,69.75
2022-10-17T22:00:23.827Z,69.82
2022-10-17T22:02:51.467Z,69.76
2022-10-17T22:05:19.111Z,69.77
2022-10-17T22:07:49.174Z,69.76
2022-10-17T22:10:17.004Z,69.80
2022-10-17T22:12:44.644Z,69.56
2022-10-17T22:15:12.254Z,69.49
2022-10-17T22:17:39.917Z,69.61
2022-10-17T22:20:08.031Z,69.55
2022-10-17T22:22:35.747Z,69.56
2022-10-17T22:25:03.561Z,69.68
2022-10-17T22:27:33.275Z,69.68
2022-10-17T22:30:01.217Z,69.69
2022-10-17T22:32:29.008Z,69.53
2022-10-17T22:34:56.692Z,69.59
2022-10-17T22:37:24.398Z,69.60
2022-10-17T22:39:52.072Z,69.46
2022-10-17T22:42:19.700Z,69.49
2022-10-17T22:44:49.160Z,69.50
2022-10-17T22:47:16.887Z,69.61
2022-10-17T22:49:44.553Z,69.56
2022-10-17T22:52:12.252Z,69.65
2022-10-17T22:54:41.875Z,69.61
2022-10-17T22:57:09.523Z,69.63
2022-10-17T22:59:37.114Z,69.58
2022-10-17T23:02:04.898Z,69.50
2022-10-17T23:04:34.538Z,69.43
2022-10-17T23:07:02.275Z,69.42
2022-10-17T23:09:29.916Z,69.50
2022-10-17T23:11:57.561Z,69.50
2022-10-17T23:14:25.188Z,69.46
2022-10-17T23:16:52.815Z,69.54
2022-10-17T23:19:20.480Z,69.56
2022-10-17T23:21:48.135Z,69.51
2022-10-17T23:24:16.108Z,69.59
2022-10-17T23:26:43.789Z,69.59
2022-10-17T23:29:11.566Z,69.67
2022-10-17T23:31:40.811Z,69.74
2022-10-17T23:34:08.573Z,69.71
2022-10-17T23:36:36.213Z,69.65
2022-10-17T23:39:07.191Z,69.65
2022-10-17T23:41:34.843Z,69.69
2022-10-17T23:44:04.741Z,69.69
2022-10-17T23:46:32.861Z,69.74
2022-10-17T23:49:02.414Z,69.68
2022-10-17T23:51:30.225Z,69.62
2022-10-17T23:53:59.834Z,69.65
2022-10-17T23:56:28.013Z,69.71
2022-10-17T23:58:55.666Z,69.63
